createdAt,value
2023-11-30T00:00:19.423Z,9.20
2023-11-30T00:02:46.089Z,10.52
2023-11-30T00:05:13.146Z,10.45
2023-11-30T00:07:40.112Z,10.63
2023-11-30T00:10:07.514Z,10.40
2023-11-30T00:12:34.231Z,10.25
2023-11-30T00:15:00.995Z,10.38
2023-11-30T00:17:27.783Z,11.00
2023-11-30T00:19:54.610Z,10.73
2023-11-30T00:22:21.278Z,11.65
2023-11-30T00:24:48.137Z,12.15
2023-11-30T00:27:14.922Z,13.77
2023-11-30T00:29:41.782Z,14.20
2023-11-30T00:32:08.498Z,13.50
2023-11-30T00:34:35.390Z,12.48
2023-11-30T00:37:02.066Z,11.95
2023-11-30T00:39:28.896Z,11.82
2023-11-30T00:41:55.664Z,11.52
2023-11-30T00:44:22.889Z,12.40
2023-11-30T00:46:49.704Z,11.63
2023-11-30T00:49:16.619Z,10.93
2023-11-30T00:51:43.653Z,11.65
2023-11-30T00:54:10.268Z,12.60
2023-11-30T00:56:36.943Z,10.73
2023-11-30T00:59:03.571Z,10.63
2023-11-30T01:01:30.348Z,10.68
2023-11-30T01:03:57.155Z,9.82
2023-11-30T01:06:23.886Z,10.20
2023-11-30T01:08:50.570Z,10.45
2023-11-30T01:11:17.209Z,11.00
2023-11-30T01:13:45.272Z,10.82
2023-11-30T01:16:11.974Z,10.63
2023-11-30T01:18:38.796Z,11.98
2023-11-30T01:21:06.003Z,11.82
2023-11-30T01:23:32.612Z,12.80
2023-11-30T01:25:59.285Z,13.77
2023-11-30T01:28:26.061Z,12.73
2023-11-30T01:30:52.700Z,12.40
2023-11-30T01:33:19.506Z,12.93
2023-11-30T01:35:46.225Z,12.30
2023-11-30T01:38:12.975Z,11.65
2023-11-30T01:40:39.605Z,12.10
2023-11-30T01:43:09.226Z,12.27
2023-11-30T01:45:35.985Z,11.05
2023-11-30T01:48:03.000Z,11.65
2023-11-30T01:50:29.764Z,11.23
2023-11-30T01:52:56.810Z,11.05
2023-11-30T01:55:23.912Z,10.70
2023-11-30T01:57:51.259Z,11.27
2023-11-30T02:00:18.389Z,10.52
2023-11-30T02:02:45.989Z,12.23
2023-11-30T02:05:12.594Z,12.82
2023-11-30T02:07:39.355Z,12.10
2023-11-30T02:10:06.660Z,13.10
2023-11-30T02:12:33.385Z,12.02
2023-11-30T02:15:04.305Z,13.10
2023-11-30T02:17:31.021Z,13.00
2023-11-30T02:19:57.733Z,13.68
2023-11-30T02:22:24.384Z,14.98
2023-11-30T02:24:51.089Z,16.05
2023-11-30T02:27:17.792Z,15.52
2023-11-30T02:29:44.522Z,16.77
2023-11-30T02:32:11.795Z,17.08
2023-11-30T02:34:38.410Z,17.40
2023-11-30T02:37:05.077Z,16.50
2023-11-30T02:39:32.077Z,16.30
2023-11-30T02:41:58.775Z,14.35
2023-11-30T02:44:25.566Z,15.20
2023-11-30T02:46:52.329Z,14.48
2023-11-30T02:49:19.375Z,13.15
2023-11-30T02:51:46.022Z,12.32
2023-11-30T02:54:12.832Z,12.38
2023-11-30T02:56:42.685Z,15.90
2023-11-30T02:59:09.325Z,15.20
2023-11-30T03:01:43.732Z,15.25
2023-11-30T03:04:10.583Z,16.38
2023-11-30T03:06:37.257Z,16.75
2023-11-30T03:09:04.097Z,17.08
2023-11-30T03:11:30.762Z,15.88
2023-11-30T03:13:57.515Z,17.25
2023-11-30T03:16:28.560Z,17.38
2023-11-30T03:19:10.364Z,17.45
2023-11-30T03:21:42.451Z,16.08
2023-11-30T03:24:09.663Z,16.00
2023-11-30T03:26:36.362Z,15.68
2023-11-30T03:29:03.015Z,14.60
2023-11-30T03:31:29.789Z,15.77
2023-11-30T03:33:56.499Z,16.27
2023-11-30T03:36:23.147Z,16.52
2023-11-30T03:38:55.003Z,16.77
2023-11-30T03:41:22.993Z,15.63
2023-11-30T03:43:50.023Z,15.30
2023-11-30T03:46:16.949Z,16.88
2023-11-30T03:48:43.652Z,15.73
2023-11-30T03:51:11.754Z,15.75
2023-11-30T03:53:38.758Z,15.85
2023-11-30T03:56:05.935Z,15.63
2023-11-30T03:58:32.662Z,14.77
2023-11-30T04:00:59.304Z,14.50
2023-11-30T04:03:25.935Z,17.10
2023-11-30T04:05:52.798Z,17.30
2023-11-30T04:08:19.483Z,16.80
2023-11-30T04:10:46.171Z,16.05
2023-11-30T04:13:12.833Z,19.00
2023-11-30T04:15:39.644Z,17.77
2023-11-30T04:18:06.781Z,16.08
2023-11-30T04:20:33.510Z,14.57
2023-11-30T04:23:00.258Z,15.07
2023-11-30T04:25:27.577Z,14.93
2023-11-30T04:27:54.329Z,14.55
2023-11-30T04:30:21.126Z,15.20
2023-11-30T04:32:47.794Z,14.98
2023-11-30T04:35:15.100Z,14.07
2023-11-30T04:37:41.878Z,14.32
2023-11-30T04:40:09.096Z,14.60
2023-11-30T04:42:35.712Z,14.70
2023-11-30T04:45:02.670Z,15.77
2023-11-30T04:47:29.335Z,15.00
2023-11-30T04:49:56.039Z,14.63
2023-11-30T04:52:22.755Z,18.25
2023-11-30T04:54:49.465Z,23.80
2023-11-30T04:57:18.625Z,20.95
2023-11-30T04:59:46.571Z,17.55
2023-11-30T05:02:13.359Z,18.75
2023-11-30T05:04:40.223Z,19.35
2023-11-30T05:07:06.918Z,19.48
2023-11-30T05:09:33.622Z,22.00
2023-11-30T05:12:00.784Z,22.67
2023-11-30T05:14:27.519Z,21.80
2023-11-30T05:16:54.692Z,22.05
2023-11-30T05:19:21.286Z,23.50
2023-11-30T05:21:47.950Z,23.23
2023-11-30T05:24:14.768Z,32.05
2023-11-30T05:26:41.414Z,27.35
2023-11-30T05:29:08.628Z,24.48
2023-11-30T05:31:35.426Z,27.33
2023-11-30T05:34:03.531Z,26.10
2023-11-30T05:36:30.588Z,25.33
2023-11-30T05:38:57.270Z,27.23
2023-11-30T05:41:23.991Z,28.63
2023-11-30T05:43:50.793Z,27.75
2023-11-30T05:46:18.894Z,29.40
2023-11-30T05:48:45.643Z,30.08
2023-11-30T05:51:13.661Z,32.00
2023-11-30T05:53:40.428Z,31.17
2023-11-30T05:56:07.382Z,28.90
2023-11-30T05:58:34.017Z,31.55
2023-11-30T06:01:00.667Z,34.25
2023-11-30T06:03:27.463Z,32.78
2023-11-30T06:05:54.175Z,34.53
2023-11-30T06:08:20.868Z,32.10
2023-11-30T06:10:47.542Z,30.85
2023-11-30T06:13:15.630Z,28.38
2023-11-30T06:15:42.629Z,28.30
2023-11-30T06:18:10.231Z,29.33
2023-11-30T06:20:36.975Z,27.10
2023-11-30T06:23:04.339Z,27.27
2023-11-30T06:25:30.989Z,27.55
2023-11-30T06:27:58.056Z,26.27
2023-11-30T06:30:24.888Z,27.50
2023-11-30T06:32:51.719Z,27.23
2023-11-30T06:35:18.453Z,28.65
2023-11-30T06:37:45.231Z,28.80
2023-11-30T06:40:12.340Z,29.80
2023-11-30T06:42:39.135Z,27.73
2023-11-30T06:45:06.496Z,24.33
2023-11-30T06:47:33.189Z,27.85
2023-11-30T06:49:59.859Z,27.02
2023-11-30T06:52:26.619Z,26.83
2023-11-30T06:54:53.303Z,25.67
2023-11-30T06:57:20.322Z,24.55
2023-11-30T06:59:47.207Z,24.25
2023-11-30T07:02:13.942Z,23.60
2023-11-30T07:04:40.716Z,26.33
2023-11-30T07:07:07.462Z,25.95
2023-11-30T07:09:34.905Z,24.33
2023-11-30T07:12:01.665Z,24.88
2023-11-30T07:14:28.440Z,23.30
2023-11-30T07:16:55.085Z,24.73
2023-11-30T07:19:21.821Z,24.63
2023-11-30T07:21:50.865Z,29.02
2023-11-30T07:24:19.830Z,25.52
2023-11-30T07:26:48.944Z,25.58
2023-11-30T07:29:16.351Z,22.42
2023-11-30T07:31:45.950Z,19.38
2023-11-30T07:34:12.843Z,19.27
2023-11-30T07:36:39.526Z,18.70
2023-11-30T07:39:06.298Z,18.45
2023-11-30T07:41:33.130Z,19.70
2023-11-30T07:44:00.224Z,20.50
2023-11-30T07:46:26.985Z,18.70
2023-11-30T07:48:57.501Z,25.27
2023-11-30T07:51:24.961Z,20.98
2023-11-30T07:53:52.274Z,20.80
2023-11-30T07:56:21.526Z,32.17
2023-11-30T07:58:48.338Z,25.33
2023-11-30T08:01:15.977Z,25.38
2023-11-30T08:03:44.170Z,18.75
2023-11-30T08:06:13.359Z,20.80
2023-11-30T08:08:40.060Z,20.33
2023-11-30T08:11:08.169Z,20.02
2023-11-30T08:13:35.198Z,19.63
2023-11-30T08:16:05.429Z,20.27
2023-11-30T08:18:33.309Z,19.83
2023-11-30T08:21:03.609Z,23.73
2023-11-30T08:23:30.440Z,20.70
2023-11-30T08:25:57.759Z,19.98
2023-11-30T08:28:24.694Z,21.83
2023-11-30T08:30:52.646Z,24.17
2023-11-30T08:33:19.464Z,25.17
2023-11-30T08:35:46.363Z,22.45
2023-11-30T08:38:13.235Z,25.48
2023-11-30T08:40:39.833Z,22.67
2023-11-30T08:43:06.564Z,24.33
2023-11-30T08:45:33.717Z,24.27
2023-11-30T08:48:00.501Z,27.67
2023-11-30T08:50:27.346Z,22.35
2023-11-30T08:52:53.945Z,23.67
2023-11-30T08:55:20.748Z,22.00
2023-11-30T08:57:47.576Z,22.77
2023-11-30T09:00:14.519Z,25.80
2023-11-30T09:02:41.411Z,24.52
2023-11-30T09:05:09.042Z,24.55
2023-11-30T09:07:35.773Z,26.13
2023-11-30T09:10:02.655Z,25.58
2023-11-30T09:12:29.386Z,27.08
2023-11-30T09:14:56.140Z,22.77
2023-11-30T09:17:22.858Z,30.80
2023-11-30T09:19:50.299Z,25.83
2023-11-30T09:22:17.186Z,28.85
2023-11-30T09:24:43.952Z,31.95
2023-11-30T09:27:10.976Z,29.30
2023-11-30T09:29:38.267Z,27.67
2023-11-30T09:32:05.344Z,33.92
2023-11-30T09:34:32.088Z,33.55
2023-11-30T09:37:00.240Z,31.65
2023-11-30T09:39:26.916Z,21.05
2023-11-30T09:41:53.612Z,33.85
2023-11-30T09:44:20.869Z,35.20
2023-11-30T09:46:47.576Z,35.63
2023-11-30T09:49:14.690Z,25.13
2023-11-30T09:51:42.974Z,25.45
2023-11-30T09:54:09.690Z,24.40
2023-11-30T09:56:36.413Z,23.88
2023-11-30T09:59:04.287Z,23.33
2023-11-30T10:01:31.035Z,26.88
2023-11-30T10:03:58.139Z,21.90
2023-11-30T10:06:25.314Z,25.83
2023-11-30T10:08:52.027Z,24.67
2023-11-30T10:11:21.170Z,23.38
2023-11-30T10:13:48.007Z,23.75
2023-11-30T10:16:15.015Z,24.35
2023-11-30T10:18:41.912Z,24.25
2023-11-30T10:21:09.172Z,22.67
2023-11-30T10:23:35.848Z,24.65
2023-11-30T10:26:03.743Z,23.60
2023-11-30T10:28:31.227Z,25.08
2023-11-30T10:31:00.769Z,24.48
2023-11-30T10:33:28.097Z,24.63
2023-11-30T10:35:55.124Z,25.95
2023-11-30T10:38:29.585Z,28.17
2023-11-30T10:41:00.946Z,27.13
2023-11-30T10:43:28.136Z,26.98
2023-11-30T10:45:58.956Z,28.70
2023-11-30T10:48:26.340Z,27.95
2023-11-30T10:50:55.141Z,27.95
2023-11-30T10:53:42.568Z,28.23
2023-11-30T10:56:14.782Z,28.73
2023-11-30T10:58:44.727Z,31.00
2023-11-30T11:01:15.017Z,34.03
2023-11-30T11:03:49.614Z,32.50
2023-11-30T11:06:17.684Z,33.95
2023-11-30T11:09:04.221Z,34.83
2023-11-30T11:11:31.494Z,30.30
2023-11-30T11:13:58.500Z,31.02
2023-11-30T11:16:37.045Z,33.63
2023-11-30T11:19:05.687Z,34.38
2023-11-30T11:21:40.814Z,32.20
2023-11-30T11:24:09.323Z,33.83
2023-11-30T11:26:49.526Z,31.30
2023-11-30T11:29:23.934Z,32.33
2023-11-30T11:31:54.517Z,30.75
2023-11-30T11:34:21.375Z,31.98
2023-11-30T11:36:49.919Z,34.00
2023-11-30T11:39:17.870Z,34.38
2023-11-30T11:41:48.740Z,33.33
2023-11-30T11:44:15.958Z,35.13
2023-11-30T11:46:44.569Z,35.00
2023-11-30T11:49:11.452Z,32.85
2023-11-30T11:51:45.851Z,34.60
2023-11-30T11:54:20.345Z,32.08
2023-11-30T11:56:51.797Z,34.55
2023-11-30T11:59:31.225Z,33.40
2023-11-30T12:01:59.974Z,34.28
2023-11-30T12:04:27.477Z,32.45
2023-11-30T12:06:54.625Z,35.58
2023-11-30T12:09:21.733Z,33.88
2023-11-30T12:11:53.144Z,32.65
2023-11-30T12:14:21.635Z,34.35
2023-11-30T12:16:48.740Z,31.20
2023-11-30T12:19:20.622Z,31.80
2023-11-30T12:21:48.162Z,31.15
2023-11-30T12:24:15.840Z,30.58
2023-11-30T12:26:43.106Z,32.60
2023-11-30T12:29:11.328Z,31.52
2023-11-30T12:31:38.148Z,33.50
2023-11-30T12:34:05.560Z,33.58
2023-11-30T12:36:32.385Z,33.38
2023-11-30T12:38:59.175Z,35.17
2023-11-30T12:41:26.153Z,33.60
2023-11-30T12:43:53.159Z,30.77
2023-11-30T12:46:21.488Z,33.00
2023-11-30T12:48:48.441Z,30.88
2023-11-30T12:51:16.156Z,30.42
2023-11-30T12:53:42.951Z,30.33
2023-11-30T12:56:10.125Z,30.23
2023-11-30T12:58:37.386Z,31.35
2023-11-30T13:01:04.425Z,31.70
2023-11-30T13:03:31.297Z,32.75
2023-11-30T13:05:58.126Z,31.80
2023-11-30T13:08:24.855Z,34.10
2023-11-30T13:10:51.763Z,34.63
2023-11-30T13:13:19.514Z,35.10
2023-11-30T13:15:48.780Z,36.83
2023-11-30T13:18:16.428Z,37.20
2023-11-30T13:20:43.620Z,38.40
2023-11-30T13:23:10.271Z,39.22
2023-11-30T13:25:36.948Z,41.03
2023-11-30T13:28:03.899Z,41.55
2023-11-30T13:30:30.681Z,45.63
2023-11-30T13:32:59.021Z,42.58
2023-11-30T13:35:27.018Z,48.80
2023-11-30T13:37:53.756Z,43.47
2023-11-30T13:40:21.043Z,44.50
2023-11-30T13:42:47.911Z,52.67
2023-11-30T13:45:14.910Z,47.03
2023-11-30T13:47:43.144Z,42.08
2023-11-30T13:50:20.487Z,41.05
2023-11-30T13:52:56.844Z,39.03
2023-11-30T13:55:23.660Z,38.95
2023-11-30T13:57:50.417Z,35.25
2023-11-30T14:00:17.678Z,35.60
2023-11-30T14:02:44.464Z,35.22
2023-11-30T14:05:11.271Z,32.10
2023-11-30T14:07:38.014Z,30.73
2023-11-30T14:10:08.492Z,33.20
2023-11-30T14:12:35.403Z,32.55
2023-11-30T14:15:02.164Z,37.03
2023-11-30T14:17:34.444Z,36.10
2023-11-30T14:20:01.860Z,36.92
2023-11-30T14:22:33.316Z,35.63
2023-11-30T14:25:00.540Z,35.13
2023-11-30T14:27:30.885Z,34.40
2023-11-30T14:29:57.710Z,35.58
2023-11-30T14:32:24.785Z,35.80
2023-11-30T14:34:51.634Z,36.45
2023-11-30T14:37:18.478Z,36.30
2023-11-30T14:39:46.091Z,35.15
2023-11-30T14:42:13.818Z,36.88
2023-11-30T14:44:42.039Z,34.63
2023-11-30T14:47:11.822Z,35.42
2023-11-30T14:49:39.231Z,35.20
2023-11-30T14:52:09.078Z,34.45
2023-11-30T14:54:36.089Z,36.85
2023-11-30T14:57:04.741Z,40.40
2023-11-30T14:59:32.973Z,34.97
2023-11-30T15:02:00.118Z,35.83
2023-11-30T15:04:28.721Z,33.17
2023-11-30T15:06:58.535Z,36.88
2023-11-30T15:09:26.044Z,34.22
2023-11-30T15:11:54.344Z,35.28
2023-11-30T15:14:21.424Z,34.45
2023-11-30T15:16:49.735Z,35.03
2023-11-30T15:19:16.752Z,35.33
2023-11-30T15:21:43.636Z,35.53
2023-11-30T15:24:10.535Z,37.40
2023-11-30T15:26:37.240Z,38.35
2023-11-30T15:29:03.978Z,37.08
2023-11-30T15:31:30.777Z,37.75
2023-11-30T15:33:57.736Z,39.25
2023-11-30T15:36:24.588Z,38.92
2023-11-30T15:38:51.390Z,38.60
2023-11-30T15:41:18.672Z,40.42
2023-11-30T15:43:45.544Z,35.35
2023-11-30T15:46:12.646Z,38.60
2023-11-30T15:48:40.457Z,37.67
2023-11-30T15:51:08.910Z,38.17
2023-11-30T15:53:38.084Z,38.53
2023-11-30T15:56:05.122Z,38.95
2023-11-30T15:58:31.883Z,40.72
2023-11-30T16:01:00.227Z,41.53
2023-11-30T16:03:27.283Z,40.13
2023-11-30T16:05:54.060Z,41.97
2023-11-30T16:08:21.017Z,43.67
2023-11-30T16:10:47.738Z,46.53
2023-11-30T16:13:14.460Z,44.90
2023-11-30T16:15:41.354Z,44.35
2023-11-30T16:18:08.105Z,46.70
2023-11-30T16:20:34.889Z,46.42
2023-11-30T16:23:02.763Z,49.55
2023-11-30T16:25:29.626Z,48.83
2023-11-30T16:27:56.516Z,58.85
2023-11-30T16:30:23.504Z,49.33
2023-11-30T16:32:50.407Z,43.90
2023-11-30T16:35:17.185Z,46.67
2023-11-30T16:37:44.128Z,44.65
2023-11-30T16:40:12.016Z,48.63
2023-11-30T16:42:39.647Z,42.97
2023-11-30T16:45:07.330Z,46.38
2023-11-30T16:47:34.358Z,47.92
2023-11-30T16:50:01.719Z,47.85
2023-11-30T16:52:30.446Z,46.70
2023-11-30T16:54:57.390Z,47.05
2023-11-30T16:57:24.275Z,36.50
2023-11-30T16:59:50.975Z,46.33
2023-11-30T17:02:18.331Z,46.05
2023-11-30T17:04:45.128Z,49.08
2023-11-30T17:07:11.945Z,49.08
2023-11-30T17:09:40.485Z,48.10
2023-11-30T17:12:07.503Z,51.40
2023-11-30T17:14:34.594Z,51.58
2023-11-30T17:17:01.548Z,52.13
2023-11-30T17:19:28.388Z,52.95
2023-11-30T17:21:55.245Z,50.03
2023-11-30T17:24:22.245Z,51.72
2023-11-30T17:26:53.541Z,58.13
2023-11-30T17:29:20.327Z,56.47
2023-11-30T17:31:47.736Z,59.97
2023-11-30T17:34:15.184Z,59.38
2023-11-30T17:36:44.882Z,62.03
2023-11-30T17:39:17.386Z,59.78
2023-11-30T17:41:45.587Z,60.05
2023-11-30T17:44:12.258Z,76.47
2023-11-30T17:46:40.064Z,74.35
2023-11-30T17:49:06.917Z,51.35
2023-11-30T17:51:33.965Z,63.97
2023-11-30T17:54:00.997Z,57.30
2023-11-30T17:56:27.761Z,60.30
2023-11-30T17:58:54.432Z,62.97
2023-11-30T18:01:21.274Z,59.45
2023-11-30T18:03:48.012Z,57.47
2023-11-30T18:06:14.784Z,58.03
2023-11-30T18:08:41.631Z,56.92
2023-11-30T18:11:10.180Z,57.40
2023-11-30T18:13:37.128Z,59.53
2023-11-30T18:16:04.546Z,58.28
2023-11-30T18:18:31.628Z,54.13
2023-11-30T18:20:58.520Z,58.17
2023-11-30T18:23:25.308Z,56.53
2023-11-30T18:25:52.061Z,56.05
2023-11-30T18:28:18.942Z,54.70
2023-11-30T18:30:45.653Z,57.35
2023-11-30T18:33:12.698Z,56.97
2023-11-30T18:35:42.831Z,57.78
2023-11-30T18:38:09.719Z,59.95
2023-11-30T18:40:36.642Z,65.00
2023-11-30T18:43:03.790Z,62.60
2023-11-30T18:45:30.971Z,81.50
2023-11-30T18:47:58.335Z,80.13
2023-11-30T18:50:25.043Z,84.65
2023-11-30T18:52:52.662Z,95.63
2023-11-30T18:55:19.565Z,92.43
2023-11-30T18:57:47.103Z,84.10
2023-11-30T19:00:14.198Z,92.32
2023-11-30T19:02:41.023Z,79.25
2023-11-30T19:05:08.301Z,89.28
2023-11-30T19:07:36.997Z,81.82
2023-11-30T19:10:04.779Z,65.90
2023-11-30T19:12:31.712Z,64.60
2023-11-30T19:14:58.735Z,63.80
2023-11-30T19:17:25.475Z,60.38
2023-11-30T19:19:52.185Z,56.78
2023-11-30T19:22:18.950Z,57.80
2023-11-30T19:24:45.753Z,56.28
2023-11-30T19:27:12.593Z,56.03
2023-11-30T19:29:39.553Z,53.13
2023-11-30T19:32:06.860Z,53.70
2023-11-30T19:34:34.207Z,53.10
2023-11-30T19:37:01.143Z,48.88
2023-11-30T19:39:27.991Z,49.85
2023-11-30T19:41:54.816Z,49.78
2023-11-30T19:44:21.621Z,51.10
2023-11-30T19:46:49.626Z,54.45
2023-11-30T19:49:16.644Z,52.20
2023-11-30T19:51:43.623Z,54.08
2023-11-30T19:54:10.505Z,48.38
2023-11-30T19:56:39.625Z,48.33
2023-11-30T19:59:06.414Z,48.47
2023-11-30T20:01:33.457Z,48.13
2023-11-30T20:04:00.454Z,49.22
2023-11-30T20:06:27.379Z,50.22
2023-11-30T20:08:54.152Z,49.97
2023-11-30T20:11:22.649Z,49.53
2023-11-30T20:13:49.770Z,49.08
2023-11-30T20:16:16.675Z,48.45
2023-11-30T20:18:43.470Z,45.70
2023-11-30T20:21:22.393Z,46.75
2023-11-30T20:23:49.691Z,42.33
2023-11-30T20:26:18.864Z,43.72
2023-11-30T20:28:46.817Z,44.10
2023-11-30T20:31:14.986Z,43.38
2023-11-30T20:33:42.224Z,42.28
2023-11-30T20:36:09.579Z,40.53
2023-11-30T20:38:39.062Z,41.38
2023-11-30T20:41:07.262Z,36.20
2023-11-30T20:43:34.340Z,36.50
2023-11-30T20:46:01.080Z,34.88
2023-11-30T20:48:28.024Z,34.95
2023-11-30T20:50:54.783Z,32.22
2023-11-30T20:53:21.614Z,32.20
2023-11-30T20:55:48.479Z,35.53
2023-11-30T20:58:15.284Z,35.45
2023-11-30T21:00:42.064Z,37.33
2023-11-30T21:03:09.047Z,41.70
2023-11-30T21:05:35.929Z,40.17
2023-11-30T21:08:02.685Z,39.90
2023-11-30T21:10:29.470Z,37.78
2023-11-30T21:12:56.347Z,34.40
2023-11-30T21:15:23.222Z,33.78
2023-11-30T21:17:50.035Z,34.13
2023-11-30T21:20:16.895Z,34.85
2023-11-30T21:22:43.728Z,35.20
2023-11-30T21:25:11.806Z,34.22
2023-11-30T21:27:38.660Z,34.05
2023-11-30T21:30:05.870Z,34.60
2023-11-30T21:32:33.439Z,34.28
2023-11-30T21:35:00.226Z,35.78
2023-11-30T21:37:27.249Z,34.38
2023-11-30T21:39:53.984Z,33.25
2023-11-30T21:42:21.044Z,35.35
2023-11-30T21:44:47.872Z,33.90
2023-11-30T21:47:14.614Z,32.50
2023-11-30T21:49:48.580Z,34.72
2023-11-30T21:52:15.477Z,34.90
2023-11-30T21:54:43.385Z,33.42
2023-11-30T21:57:10.111Z,32.97
2023-11-30T21:59:38.056Z,34.58
2023-11-30T22:02:08.045Z,34.92
2023-11-30T22:04:35.121Z,36.42
2023-11-30T22:07:02.776Z,36.85
2023-11-30T22:09:29.503Z,40.35
2023-11-30T22:11:56.321Z,36.88
2023-11-30T22:14:23.374Z,41.28
2023-11-30T22:16:50.202Z,43.63
2023-11-30T22:19:17.195Z,44.00
2023-11-30T22:21:44.059Z,41.88
2023-11-30T22:24:10.861Z,40.08
2023-11-30T22:26:37.675Z,41.03
2023-11-30T22:29:04.440Z,41.10
2023-11-30T22:31:34.712Z,35.55
2023-11-30T22:34:02.098Z,37.00
2023-11-30T22:36:28.934Z,36.88
2023-11-30T22:38:55.855Z,37.55
2023-11-30T22:41:22.634Z,37.70
2023-11-30T22:43:49.327Z,39.85
2023-11-30T22:46:19.606Z,38.10
2023-11-30T22:48:47.681Z,36.03
2023-11-30T22:51:14.512Z,33.78
2023-11-30T22:53:41.340Z,35.75
2023-11-30T22:56:08.414Z,31.52
2023-11-30T22:58:35.239Z,32.10
2023-11-30T23:01:02.145Z,30.55
2023-11-30T23:03:29.394Z,32.22
2023-11-30T23:05:56.322Z,30.02
2023-11-30T23:08:23.144Z,30.52
2023-11-30T23:10:50.036Z,30.30
2023-11-30T23:13:16.837Z,31.10
2023-11-30T23:15:44.402Z,30.55
2023-11-30T23:18:11.338Z,29.52
2023-11-30T23:20:38.149Z,28.20
2023-11-30T23:23:04.986Z,26.90
2023-11-30T23:25:31.843Z,26.77
2023-11-30T23:28:00.672Z,26.88
2023-11-30T23:30:28.157Z,27.25
2023-11-30T23:32:55.980Z,27.40
2023-11-30T23:35:22.936Z,27.05
2023-11-30T23:37:49.866Z,27.08
2023-11-30T23:40:16.706Z,25.20
2023-11-30T23:42:43.711Z,27.60
2023-11-30T23:45:11.169Z,25.63
2023-11-30T23:47:38.589Z,23.83
2023-11-30T23:50:06.279Z,27.35
2023-11-30T23:52:33.152Z,27.77
2023-11-30T23:54:59.994Z,25.40
2023-11-30T23:57:26.885Z,24.77
2023-11-30T23:59:53.675Z,24.70
